WZZ72KJ EKCH-EPGD
Flight info
| Callsign | WZZ72KJ |
|---|---|
| Flight time | 0h 42m |
| Altitude | 33000 |
| Route | SIMEG Z491 TELMO DCT ASBAX DCT RUMAR L983 DOMAG T240 OGDAV |
| Aircraft | A320/M-SDE3FGHIRWY/LB1 |
Departure
| Time | 2026-04-30 19:50 |
|---|---|
| Airport | Copenhagen Kastrup Airport (EKCH) |
Arrival
| Time | 2026-04-30 20:33 |
|---|---|
| Airport | Gdańsk Lech Wałęsa Airport (EPGD) |
| Time | Latitude | Longitude | Altitude | Speed | Heading |
|---|---|---|---|---|---|
| 2026-04-30 18:50 | 55.62522 | 12.65681 | 24 ft | 0 kts | 359° |
| 2026-04-30 19:39 | 55.62511 | 12.65682 | 26 ft | 2 kts | 358° |
| 2026-04-30 19:39 | 55.62498 | 12.65683 | 26 ft | 2 kts | 358° |
| 2026-04-30 19:39 | 55.62484 | 12.65683 | 27 ft | 2 kts | 358° |
| 2026-04-30 19:39 | 55.62470 | 12.65684 | 27 ft | 2 kts | 359° |
| 2026-04-30 19:40 | 55.62459 | 12.65684 | 28 ft | 1 kts | 345° |
| 2026-04-30 19:40 | 55.62453 | 12.65685 | 27 ft | 1 kts | 319° |
| 2026-04-30 19:40 | 55.62449 | 12.65692 | 27 ft | 1 kts | 284° |
| 2026-04-30 19:40 | 55.62446 | 12.65711 | 29 ft | 1 kts | 270° |
| 2026-04-30 19:41 | 55.62446 | 12.65724 | 28 ft | 1 kts | 271° |
| 2026-04-30 19:41 | 55.62446 | 12.65733 | 25 ft | 1 kts | 268° |
| 2026-04-30 19:41 | 55.62446 | 12.65742 | 26 ft | 1 kts | 268° |
| 2026-04-30 19:41 | 55.62446 | 12.65747 | 26 ft | 0 kts | 268° |
| 2026-04-30 19:44 | 55.62446 | 12.65740 | 26 ft | 2 kts | 268° |
| 2026-04-30 19:44 | 55.62444 | 12.65664 | 26 ft | 11 kts | 268° |
| 2026-04-30 19:44 | 55.62443 | 12.65483 | 24 ft | 17 kts | 269° |
| 2026-04-30 19:45 | 55.62441 | 12.65277 | 24 ft | 12 kts | 269° |
| 2026-04-30 19:45 | 55.62441 | 12.65260 | 24 ft | 2 kts | 269° |
| 2026-04-30 19:45 | 55.62432 | 12.65209 | 24 ft | 8 kts | 232° |
| 2026-04-30 19:45 | 55.62363 | 12.65204 | 24 ft | 9 kts | 176° |
| 2026-04-30 19:46 | 55.62316 | 12.65204 | 25 ft | 5 kts | 184° |
| 2026-04-30 19:46 | 55.62229 | 12.65190 | 24 ft | 15 kts | 193° |
| 2026-04-30 19:46 | 55.62133 | 12.65090 | 24 ft | 17 kts | 213° |
| 2026-04-30 19:46 | 55.62028 | 12.64965 | 25 ft | 19 kts | 213° |
| 2026-04-30 19:47 | 55.61906 | 12.64829 | 23 ft | 22 kts | 212° |
| 2026-04-30 19:47 | 55.61824 | 12.64734 | 26 ft | 20 kts | 213° |
| 2026-04-30 19:47 | 55.61653 | 12.64536 | 24 ft | 23 kts | 212° |
| 2026-04-30 19:47 | 55.61527 | 12.64392 | 24 ft | 20 kts | 213° |
| 2026-04-30 19:48 | 55.61406 | 12.64252 | 24 ft | 22 kts | 212° |
| 2026-04-30 19:48 | 55.61270 | 12.64097 | 24 ft | 24 kts | 213° |
| 2026-04-30 19:48 | 55.61123 | 12.63928 | 24 ft | 26 kts | 213° |
| 2026-04-30 19:48 | 55.60964 | 12.63745 | 24 ft | 28 kts | 213° |
| 2026-04-30 19:49 | 55.60840 | 12.63603 | 25 ft | 15 kts | 211° |
| 2026-04-30 19:49 | 55.60692 | 12.63841 | 25 ft | 20 kts | 91° |
| 2026-04-30 19:49 | 55.60813 | 12.64075 | 27 ft | 39 kts | 40° |
| 2026-04-30 19:50 | 55.61193 | 12.64666 | 24 ft | 103 kts | 41° |
| 2026-04-30 19:50 | 55.61863 | 12.65700 | 31 ft | 150 kts | 41° |
| 2026-04-30 19:50 | 55.62684 | 12.67039 | 362 ft | 163 kts | 42° |
| 2026-04-30 19:50 | 55.63504 | 12.68453 | 940 ft | 168 kts | 41° |
| 2026-04-30 19:51 | 55.64351 | 12.69949 | 1414 ft | 178 kts | 39° |
| 2026-04-30 19:51 | 55.65296 | 12.71525 | 1739 ft | 194 kts | 38° |
| 2026-04-30 19:51 | 55.66334 | 12.73187 | 2177 ft | 209 kts | 38° |
| 2026-04-30 19:51 | 55.67276 | 12.75367 | 2474 ft | 242 kts | 67° |
| 2026-04-30 19:52 | 55.67347 | 12.78472 | 2912 ft | 269 kts | 106° |
| 2026-04-30 19:52 | 55.66357 | 12.81318 | 3719 ft | 276 kts | 130° |
| 2026-04-30 19:52 | 55.65031 | 12.83690 | 4739 ft | 274 kts | 135° |
| 2026-04-30 19:52 | 55.63613 | 12.85929 | 5708 ft | 274 kts | 136° |
| 2026-04-30 19:53 | 55.62171 | 12.88155 | 6575 ft | 276 kts | 135° |
| 2026-04-30 19:53 | 55.60726 | 12.90424 | 7372 ft | 280 kts | 135° |
| 2026-04-30 19:53 | 55.59277 | 12.92761 | 8142 ft | 284 kts | 134° |
| 2026-04-30 19:53 | 55.57827 | 12.95155 | 8914 ft | 287 kts | 133° |
| 2026-04-30 19:54 | 55.56366 | 12.97606 | 9680 ft | 291 kts | 133° |
| 2026-04-30 19:54 | 55.54893 | 13.00094 | 10406 ft | 295 kts | 133° |
| 2026-04-30 19:54 | 55.53380 | 13.02657 | 10830 ft | 311 kts | 133° |
| 2026-04-30 19:54 | 55.51764 | 13.05402 | 10981 ft | 334 kts | 133° |
| 2026-04-30 19:55 | 55.50031 | 13.08342 | 11116 ft | 356 kts | 133° |
| 2026-04-30 19:55 | 55.48186 | 13.11458 | 11242 ft | 377 kts | 133° |
| 2026-04-30 19:55 | 55.46248 | 13.14721 | 11394 ft | 394 kts | 133° |
| 2026-04-30 19:55 | 55.44239 | 13.18092 | 11854 ft | 401 kts | 133° |
| 2026-04-30 19:56 | 55.42206 | 13.21489 | 12435 ft | 405 kts | 133° |
| 2026-04-30 19:56 | 55.40146 | 13.24926 | 13044 ft | 408 kts | 133° |
| 2026-04-30 19:56 | 55.38045 | 13.28423 | 13680 ft | 412 kts | 133° |
| 2026-04-30 19:56 | 55.35959 | 13.31895 | 14281 ft | 415 kts | 132° |
| 2026-04-30 19:57 | 55.33887 | 13.35343 | 14805 ft | 418 kts | 132° |
| 2026-04-30 19:57 | 55.31770 | 13.38868 | 15319 ft | 422 kts | 132° |
| 2026-04-30 19:57 | 55.29632 | 13.42427 | 15817 ft | 425 kts | 132° |
| 2026-04-30 19:57 | 55.27448 | 13.46054 | 16305 ft | 428 kts | 132° |
| 2026-04-30 19:58 | 55.25431 | 13.49797 | 16772 ft | 428 kts | 124° |
| 2026-04-30 19:58 | 55.23753 | 13.54075 | 17249 ft | 426 kts | 115° |
| 2026-04-30 19:58 | 55.22327 | 13.58639 | 17719 ft | 428 kts | 114° |
| 2026-04-30 19:58 | 55.20893 | 13.63224 | 18164 ft | 431 kts | 114° |
| 2026-04-30 19:59 | 55.19437 | 13.67843 | 18624 ft | 434 kts | 114° |
| 2026-04-30 19:59 | 55.17969 | 13.72479 | 19015 ft | 438 kts | 115° |
| 2026-04-30 19:59 | 55.14990 | 13.81859 | 19794 ft | 443 kts | 115° |
| 2026-04-30 20:00 | 55.13489 | 13.86579 | 20183 ft | 446 kts | 115° |
| 2026-04-30 20:00 | 55.11978 | 13.91325 | 20551 ft | 448 kts | 115° |
| 2026-04-30 20:00 | 55.10456 | 13.96095 | 20905 ft | 451 kts | 115° |
| 2026-04-30 20:00 | 55.08905 | 14.00950 | 21252 ft | 453 kts | 115° |
| 2026-04-30 20:01 | 55.06310 | 14.10922 | 21874 ft | 450 kts | 101° |
| 2026-04-30 20:01 | 55.05657 | 14.16233 | 22166 ft | 447 kts | 93° |
| 2026-04-30 20:01 | 55.05461 | 14.21613 | 22460 ft | 444 kts | 85° |
| 2026-04-30 20:02 | 55.05468 | 14.30575 | 23079 ft | 444 kts | 86° |
| 2026-04-30 20:02 | 55.05455 | 14.35950 | 23523 ft | 443 kts | 86° |
| 2026-04-30 20:03 | 55.05414 | 14.46679 | 24355 ft | 441 kts | 86° |
| 2026-04-30 20:03 | 55.05388 | 14.52023 | 24742 ft | 441 kts | 86° |
| 2026-04-30 20:03 | 55.05361 | 14.57365 | 25130 ft | 440 kts | 86° |
| 2026-04-30 20:03 | 55.05332 | 14.62698 | 25521 ft | 440 kts | 86° |
| 2026-04-30 20:04 | 55.05303 | 14.68026 | 25927 ft | 439 kts | 86° |
| 2026-04-30 20:04 | 55.05274 | 14.73345 | 26337 ft | 438 kts | 86° |
| 2026-04-30 20:04 | 55.05247 | 14.78653 | 26751 ft | 438 kts | 86° |
| 2026-04-30 20:05 | 55.05188 | 14.89259 | 27592 ft | 437 kts | 86° |
| 2026-04-30 20:05 | 55.05149 | 14.94552 | 28024 ft | 436 kts | 86° |
| 2026-04-30 20:05 | 55.05057 | 15.05120 | 28905 ft | 435 kts | 86° |
| 2026-04-30 20:06 | 55.05006 | 15.10378 | 29347 ft | 434 kts | 86° |
| 2026-04-30 20:06 | 55.04955 | 15.15635 | 29802 ft | 434 kts | 86° |
| 2026-04-30 20:06 | 55.04898 | 15.20894 | 30259 ft | 433 kts | 86° |
| 2026-04-30 20:06 | 55.04829 | 15.26070 | 30669 ft | 432 kts | 86° |
| 2026-04-30 20:07 | 55.04750 | 15.31317 | 31064 ft | 432 kts | 87° |
| 2026-04-30 20:07 | 55.04666 | 15.36548 | 31449 ft | 431 kts | 87° |
| 2026-04-30 20:07 | 55.04496 | 15.46980 | 32235 ft | 430 kts | 87° |
| 2026-04-30 20:08 | 55.04409 | 15.52187 | 32631 ft | 429 kts | 87° |
| 2026-04-30 20:08 | 55.04322 | 15.57377 | 33040 ft | 429 kts | 87° |
| 2026-04-30 20:08 | 55.04233 | 15.62567 | 33329 ft | 429 kts | 87° |
| 2026-04-30 20:09 | 55.04044 | 15.72942 | 33381 ft | 427 kts | 87° |
| 2026-04-30 20:09 | 55.03749 | 15.88442 | 33381 ft | 425 kts | 87° |
| 2026-04-30 20:10 | 55.03431 | 16.03868 | 33381 ft | 424 kts | 87° |
| 2026-04-30 20:11 | 55.03019 | 16.19276 | 33381 ft | 424 kts | 88° |
| 2026-04-30 20:11 | 55.02669 | 16.29544 | 33380 ft | 424 kts | 88° |
| 2026-04-30 20:12 | 55.02039 | 16.44933 | 33381 ft | 429 kts | 97° |
| 2026-04-30 20:12 | 55.01070 | 16.49910 | 33391 ft | 438 kts | 108° |
| 2026-04-30 20:13 | 54.99839 | 16.54768 | 33386 ft | 439 kts | 108° |
| 2026-04-30 20:13 | 54.97312 | 16.64446 | 33384 ft | 439 kts | 109° |
| 2026-04-30 20:14 | 54.94760 | 16.74104 | 33385 ft | 439 kts | 109° |
| 2026-04-30 20:14 | 54.92224 | 16.83763 | 33384 ft | 439 kts | 108° |
| 2026-04-30 20:15 | 54.89684 | 16.93428 | 33386 ft | 439 kts | 108° |
| 2026-04-30 20:15 | 54.87162 | 17.02990 | 33385 ft | 439 kts | 108° |
| 2026-04-30 20:16 | 54.84602 | 17.12611 | 33389 ft | 439 kts | 108° |
| 2026-04-30 20:16 | 54.83293 | 17.17528 | 33117 ft | 450 kts | 108° |
| 2026-04-30 20:16 | 54.81987 | 17.22447 | 32860 ft | 459 kts | 109° |
| 2026-04-30 20:16 | 54.80640 | 17.27492 | 32601 ft | 462 kts | 109° |
| 2026-04-30 20:17 | 54.79281 | 17.32544 | 32344 ft | 464 kts | 109° |
| 2026-04-30 20:17 | 54.77914 | 17.37617 | 32089 ft | 465 kts | 109° |
| 2026-04-30 20:17 | 54.76548 | 17.42681 | 31754 ft | 464 kts | 109° |
| 2026-04-30 20:17 | 54.75177 | 17.47757 | 30741 ft | 467 kts | 109° |
| 2026-04-30 20:18 | 54.73799 | 17.52857 | 29591 ft | 470 kts | 109° |
| 2026-04-30 20:18 | 54.72411 | 17.57979 | 28531 ft | 470 kts | 109° |
| 2026-04-30 20:18 | 54.71024 | 17.63075 | 27485 ft | 469 kts | 109° |
| 2026-04-30 20:18 | 54.69623 | 17.68207 | 26248 ft | 472 kts | 109° |
| 2026-04-30 20:19 | 54.68222 | 17.73334 | 25078 ft | 474 kts | 109° |
| 2026-04-30 20:19 | 54.66811 | 17.78485 | 23973 ft | 474 kts | 109° |
| 2026-04-30 20:19 | 54.65407 | 17.83599 | 22981 ft | 468 kts | 109° |
| 2026-04-30 20:19 | 54.64018 | 17.88634 | 22121 ft | 460 kts | 109° |
| 2026-04-30 20:20 | 54.62652 | 17.93580 | 21240 ft | 454 kts | 109° |
| 2026-04-30 20:20 | 54.61298 | 17.98473 | 20372 ft | 449 kts | 109° |
| 2026-04-30 20:20 | 54.59990 | 18.03207 | 19546 ft | 444 kts | 109° |
| 2026-04-30 20:20 | 54.58671 | 18.07987 | 18706 ft | 440 kts | 109° |
| 2026-04-30 20:21 | 54.57363 | 18.12717 | 17803 ft | 435 kts | 109° |
| 2026-04-30 20:21 | 54.56063 | 18.17385 | 16988 ft | 428 kts | 109° |
| 2026-04-30 20:21 | 54.54781 | 18.21974 | 16173 ft | 423 kts | 110° |
| 2026-04-30 20:21 | 54.53509 | 18.26515 | 15392 ft | 418 kts | 110° |
| 2026-04-30 20:22 | 54.52253 | 18.31002 | 14636 ft | 415 kts | 110° |
| 2026-04-30 20:22 | 54.51004 | 18.35460 | 13872 ft | 412 kts | 110° |
| 2026-04-30 20:22 | 54.49764 | 18.39867 | 13152 ft | 407 kts | 110° |
| 2026-04-30 20:22 | 54.48540 | 18.44216 | 12771 ft | 396 kts | 110° |
| 2026-04-30 20:23 | 54.47363 | 18.48376 | 12637 ft | 378 kts | 110° |
| 2026-04-30 20:23 | 54.46237 | 18.52347 | 12507 ft | 361 kts | 110° |
| 2026-04-30 20:23 | 54.45160 | 18.56140 | 12388 ft | 345 kts | 110° |
| 2026-04-30 20:23 | 54.44127 | 18.59767 | 12253 ft | 332 kts | 110° |
| 2026-04-30 20:24 | 54.43131 | 18.63262 | 12134 ft | 319 kts | 110° |
| 2026-04-30 20:24 | 54.42173 | 18.66624 | 12001 ft | 308 kts | 110° |
| 2026-04-30 20:24 | 54.41244 | 18.69878 | 11875 ft | 298 kts | 109° |
| 2026-04-30 20:24 | 54.40349 | 18.73022 | 11747 ft | 289 kts | 109° |
| 2026-04-30 20:25 | 54.38666 | 18.79036 | 11498 ft | 270 kts | 107° |
| 2026-04-30 20:25 | 54.37926 | 18.81945 | 11338 ft | 263 kts | 106° |
| 2026-04-30 20:26 | 54.36520 | 18.87673 | 10522 ft | 259 kts | 106° |
| 2026-04-30 20:26 | 54.34968 | 18.93190 | 9510 ft | 264 kts | 126° |
| 2026-04-30 20:26 | 54.33506 | 18.95126 | 9011 ft | 271 kts | 153° |
| 2026-04-30 20:27 | 54.29798 | 18.95341 | 8008 ft | 271 kts | 202° |
| 2026-04-30 20:27 | 54.27447 | 18.90900 | 7071 ft | 252 kts | 263° |
| 2026-04-30 20:28 | 54.28101 | 18.85356 | 6036 ft | 238 kts | 297° |
| 2026-04-30 20:28 | 54.29403 | 18.80165 | 4938 ft | 240 kts | 296° |
| 2026-04-30 20:29 | 54.30725 | 18.74869 | 3819 ft | 239 kts | 296° |
| 2026-04-30 20:30 | 54.32576 | 18.67465 | 2862 ft | 212 kts | 296° |
| 2026-04-30 20:30 | 54.34073 | 18.61457 | 2117 ft | 162 kts | 296° |
| 2026-04-30 20:31 | 54.35299 | 18.56539 | 1506 ft | 144 kts | 296° |
| 2026-04-30 20:32 | 54.36473 | 18.51800 | 887 ft | 144 kts | 294° |
| 2026-04-30 20:32 | 54.37256 | 18.48648 | 499 ft | 140 kts | 292° |
| 2026-04-30 20:33 | 54.37585 | 18.47320 | 462 ft | 98 kts | 293° |
| 2026-04-30 20:33 | 54.37920 | 18.45979 | 457 ft | 35 kts | 299° |
| 2026-04-30 20:33 | 54.38021 | 18.45812 | 454 ft | 17 kts | 318° |
| 2026-04-30 20:34 | 54.38103 | 18.45704 | 454 ft | 0 kts | 332° |
| 2026-04-30 20:34 | 54.38113 | 18.45697 | 454 ft | 3 kts | 337° |
| 2026-04-30 20:35 | 54.38148 | 18.45761 | 455 ft | 16 kts | 89° |
| 2026-04-30 20:35 | 54.38122 | 18.45871 | 455 ft | 13 kts | 111° |
| 2026-04-30 20:35 | 54.37992 | 18.46396 | 459 ft | 29 kts | 113° |
| 2026-04-30 20:36 | 54.37960 | 18.46545 | 458 ft | 1 kts | 72° |
| 2026-04-30 20:36 | 54.37973 | 18.46646 | 459 ft | 15 kts | 104° |
| 2026-04-30 20:36 | 54.38044 | 18.46734 | 459 ft | 1 kts | 22° |
| 2026-04-30 20:37 | 54.38045 | 18.46734 | 459 ft | 0 kts | 22° |